sensor_id;sensor_type;location;lat;lon;timestamp;pressure;altitude;pressure_sealevel;temperature;humidity
26839;BME280;40088;51.214;6.786;2022-12-07T00:04:50;101403.00;;;16.10;51.17
26839;BME280;40088;51.214;6.786;2022-12-07T00:14:50;101398.34;;;16.10;51.13
26839;BME280;40088;51.214;6.786;2022-12-07T00:24:50;101403.00;;;16.10;51.13
26839;BME280;40088;51.214;6.786;2022-12-07T00:34:50;101400.44;;;16.08;51.09
26839;BME280;40088;51.214;6.786;2022-12-07T00:44:51;101395.78;;;16.09;51.10
26839;BME280;40088;51.214;6.786;2022-12-07T00:54:51;101393.03;;;16.09;51.18
26839;BME280;40088;51.214;6.786;2022-12-07T01:04:51;101383.94;;;16.08;51.38
26839;BME280;40088;51.214;6.786;2022-12-07T01:14:52;101379.44;;;16.07;51.08
26839;BME280;40088;51.214;6.786;2022-12-07T01:24:52;101386.84;;;16.07;51.12
26839;BME280;40088;51.214;6.786;2022-12-07T01:34:52;101386.84;;;16.07;51.29
26839;BME280;40088;51.214;6.786;2022-12-07T01:55:18;101371.19;;;16.07;51.18
26839;BME280;40088;51.214;6.786;2022-12-07T02:05:19;101367.78;;;16.05;51.29
26839;BME280;40088;51.214;6.786;2022-12-07T02:15:21;101375.00;;;16.06;51.12
26839;BME280;40088;51.214;6.786;2022-12-07T02:25:55;101365.88;;;16.06;51.43
26839;BME280;40088;51.214;6.786;2022-12-07T02:36:04;101369.50;;;16.06;51.15
26839;BME280;40088;51.214;6.786;2022-12-07T02:46:09;101366.06;;;16.04;51.29
26839;BME280;40088;51.214;6.786;2022-12-07T03:06:40;101362.28;;;16.05;51.30
26839;BME280;40088;51.214;6.786;2022-12-07T03:16:53;101366.94;;;16.05;51.33
26839;BME280;40088;51.214;6.786;2022-12-07T03:27:01;101369.69;;;16.05;51.38
26839;BME280;40088;51.214;6.786;2022-12-07T03:37:07;101362.47;;;16.04;51.33
26839;BME280;40088;51.214;6.786;2022-12-07T03:47:30;101367.28;;;16.02;51.43
26839;BME280;40088;51.214;6.786;2022-12-07T03:57:33;101362.66;;;16.02;51.47
26839;BME280;40088;51.214;6.786;2022-12-07T04:07:33;101355.25;;;16.03;51.37
26839;BME280;40088;51.214;6.786;2022-12-07T04:17:33;101360.91;;;16.01;51.32
26839;BME280;40088;51.214;6.786;2022-12-07T04:27:34;101366.25;;;16.03;51.25
26839;BME280;40088;51.214;6.786;2022-12-07T04:37:34;101359.03;;;16.02;51.47
26839;BME280;40088;51.214;6.786;2022-12-07T04:47:34;101349.06;;;16.01;51.42
26839;BME280;40088;51.214;6.786;2022-12-07T04:57:35;101347.16;;;16.01;51.28
26839;BME280;40088;51.214;6.786;2022-12-07T05:07:35;101332.56;;;16.01;51.25
26839;BME280;40088;51.214;6.786;2022-12-07T05:17:35;101354.41;;;16.02;51.33
26839;BME280;40088;51.214;6.786;2022-12-07T05:27:36;101355.41;;;16.01;51.40
26839;BME280;40088;51.214;6.786;2022-12-07T05:37:36;101350.78;;;16.02;51.25
26839;BME280;40088;51.214;6.786;2022-12-07T05:47:37;101338.91;;;16.01;51.20
26839;BME280;40088;51.214;6.786;2022-12-07T05:57:38;101338.06;;;16.01;51.20
26839;BME280;40088;51.214;6.786;2022-12-07T06:07:38;101346.31;;;16.01;51.34
26839;BME280;40088;51.214;6.786;2022-12-07T06:17:38;101334.47;;;16.00;51.32
26839;BME280;40088;51.214;6.786;2022-12-07T06:27:39;101349.91;;;16.01;51.01
26839;BME280;40088;51.214;6.786;2022-12-07T06:37:39;101348.22;;;16.00;51.44
26839;BME280;40088;51.214;6.786;2022-12-07T06:47:39;101358.34;;;16.00;51.27
26839;BME280;40088;51.214;6.786;2022-12-07T06:57:39;101355.59;;;16.00;51.29
26839;BME280;40088;51.214;6.786;2022-12-07T07:07:40;101358.16;;;16.01;51.21
26839;BME280;40088;51.214;6.786;2022-12-07T07:17:40;101353.72;;;16.00;51.40
26839;BME280;40088;51.214;6.786;2022-12-07T07:27:40;101355.59;;;16.00;51.42
26839;BME280;40088;51.214;6.786;2022-12-07T07:37:41;101361.97;;;16.00;51.13
26839;BME280;40088;51.214;6.786;2022-12-07T07:47:41;101364.69;;;16.00;51.18
26839;BME280;40088;51.214;6.786;2022-12-07T07:57:42;101374.84;;;16.00;51.19
26839;BME280;40088;51.214;6.786;2022-12-07T08:07:42;101381.19;;;16.00;51.34
26839;BME280;40088;51.214;6.786;2022-12-07T08:17:43;101383.09;;;16.00;51.20
26839;BME280;40088;51.214;6.786;2022-12-07T08:27:43;101384.97;;;15.99;51.29
26839;BME280;40088;51.214;6.786;2022-12-07T08:37:43;101397.69;;;16.00;51.08
26839;BME280;40088;51.214;6.786;2022-12-07T08:47:53;101389.63;;;15.99;51.54
26839;BME280;40088;51.214;6.786;2022-12-07T08:57:54;101387.72;;;15.99;51.26
26839;BME280;40088;51.214;6.786;2022-12-07T09:07:57;101386.69;;;16.00;51.36
26839;BME280;40088;51.214;6.786;2022-12-07T09:17:59;101391.34;;;16.00;51.21
26839;BME280;40088;51.214;6.786;2022-12-07T09:28:00;101378.44;;;16.00;51.35
26839;BME280;40088;51.214;6.786;2022-12-07T09:38:01;101389.25;;;16.02;51.25
26839;BME280;40088;51.214;6.786;2022-12-07T09:48:02;101396.66;;;16.01;51.15
26839;BME280;40088;51.214;6.786;2022-12-07T09:58:03;101393.03;;;16.01;51.24
26839;BME280;40088;51.214;6.786;2022-12-07T10:08:04;101377.41;;;16.01;51.10
26839;BME280;40088;51.214;6.786;2022-12-07T10:18:17;101366.59;;;16.00;51.23
26839;BME280;40088;51.214;6.786;2022-12-07T10:28:18;101358.16;;;16.01;51.29
26839;BME280;40088;51.214;6.786;2022-12-07T10:38:19;101348.03;;;16.02;51.32
26839;BME280;40088;51.214;6.786;2022-12-07T10:58:42;101333.44;;;16.01;51.24
26839;BME280;40088;51.214;6.786;2022-12-07T11:08:57;101315.03;;;16.02;51.32
26839;BME280;40088;51.214;6.786;2022-12-07T11:40:05;101295.78;;;16.02;51.37
26839;BME280;40088;51.214;6.786;2022-12-07T12:00:18;101275.88;;;16.00;51.28
26839;BME280;40088;51.214;6.786;2022-12-07T12:10:41;101272.09;;;16.01;51.43
26839;BME280;40088;51.214;6.786;2022-12-07T12:20:56;101268.50;;;16.00;51.37
26839;BME280;40088;51.214;6.786;2022-12-07T12:31:34;101250.28;;;15.99;51.48
26839;BME280;40088;51.214;6.786;2022-12-07T12:51:56;101241.84;;;16.01;51.28
26839;BME280;40088;51.214;6.786;2022-12-07T13:12:16;101224.50;;;16.00;51.48
26839;BME280;40088;51.214;6.786;2022-12-07T13:32:31;101209.72;;;16.01;51.25
26839;BME280;40088;51.214;6.786;2022-12-07T13:42:33;101206.97;;;16.01;51.57
26839;BME280;40088;51.214;6.786;2022-12-07T13:52:43;101185.84;;;16.02;51.15
26839;BME280;40088;51.214;6.786;2022-12-07T14:23:31;101164.75;;;16.02;51.48
26839;BME280;40088;51.214;6.786;2022-12-07T14:33:31;101158.19;;;16.03;51.40
26839;BME280;40088;51.214;6.786;2022-12-07T14:43:31;101149.25;;;16.01;51.49
26839;BME280;40088;51.214;6.786;2022-12-07T14:53:36;101141.00;;;16.01;51.34
26839;BME280;40088;51.214;6.786;2022-12-07T15:03:37;101127.97;;;16.03;51.32
26839;BME280;40088;51.214;6.786;2022-12-07T15:13:38;101120.75;;;16.02;51.14
26839;BME280;40088;51.214;6.786;2022-12-07T15:23:57;101119.72;;;16.03;51.33
26839;BME280;40088;51.214;6.786;2022-12-07T15:33:57;101116.13;;;16.03;51.41
26839;BME280;40088;51.214;6.786;2022-12-07T15:43:58;101121.78;;;16.01;51.52
26839;BME280;40088;51.214;6.786;2022-12-07T15:54:25;101121.78;;;16.01;51.40
26839;BME280;40088;51.214;6.786;2022-12-07T16:04:27;101111.63;;;16.02;51.38
26839;BME280;40088;51.214;6.786;2022-12-07T16:14:28;101111.50;;;15.95;51.75
26839;BME280;40088;51.214;6.786;2022-12-07T16:24:28;101115.81;;;15.98;51.44
26839;BME280;40088;51.214;6.786;2022-12-07T16:34:28;101106.31;;;16.00;51.37
26839;BME280;40088;51.214;6.786;2022-12-07T16:44:30;101107.38;;;15.99;51.45
26839;BME280;40088;51.214;6.786;2022-12-07T16:54:31;101096.38;;;15.99;51.41
26839;BME280;40088;51.214;6.786;2022-12-07T17:04:33;101086.03;;;16.01;51.44
26839;BME280;40088;51.214;6.786;2022-12-07T17:14:33;101084.34;;;16.00;50.97
26839;BME280;40088;51.214;6.786;2022-12-07T17:24:52;101079.69;;;16.01;51.39
26839;BME280;40088;51.214;6.786;2022-12-07T17:34:52;101069.53;;;16.01;51.38
26839;BME280;40088;51.214;6.786;2022-12-07T17:44:53;101064.91;;;16.02;51.71
26839;BME280;40088;51.214;6.786;2022-12-07T17:54:53;101047.56;;;16.01;51.55
26839;BME280;40088;51.214;6.786;2022-12-07T18:04:53;101039.31;;;16.01;51.73
26839;BME280;40088;51.214;6.786;2022-12-07T18:14:54;101038.66;;;15.99;51.68
26839;BME280;40088;51.214;6.786;2022-12-07T18:24:54;101028.50;;;16.00;51.60
26839;BME280;40088;51.214;6.786;2022-12-07T18:34:55;101023.19;;;15.98;51.66
26839;BME280;40088;51.214;6.786;2022-12-07T18:44:55;101017.50;;;16.00;51.52
26839;BME280;40088;51.214;6.786;2022-12-07T18:54:55;101013.72;;;16.01;51.59
26839;BME280;40088;51.214;6.786;2022-12-07T19:04:55;101018.38;;;16.00;51.74
26839;BME280;40088;51.214;6.786;2022-12-07T19:14:56;101007.38;;;16.00;51.63
26839;BME280;40088;51.214;6.786;2022-12-07T19:24:56;101008.06;;;16.02;51.50
26839;BME280;40088;51.214;6.786;2022-12-07T19:34:56;100990.88;;;16.00;51.82
26839;BME280;40088;51.214;6.786;2022-12-07T19:44:57;100988.13;;;16.00;51.74
26839;BME280;40088;51.214;6.786;2022-12-07T19:54:57;100990.88;;;16.00;51.70
26839;BME280;40088;51.214;6.786;2022-12-07T20:04:57;100987.09;;;16.01;51.54
26839;BME280;40088;51.214;6.786;2022-12-07T20:14:58;100970.78;;;16.00;51.81
26839;BME280;40088;51.214;6.786;2022-12-07T20:24:58;100972.50;;;16.01;51.80
26839;BME280;40088;51.214;6.786;2022-12-07T20:34:59;100967.00;;;16.01;51.72
26839;BME280;40088;51.214;6.786;2022-12-07T20:44:59;100950.69;;;15.99;51.85
26839;BME280;40088;51.214;6.786;2022-12-07T20:54:59;100944.34;;;15.99;51.72
26839;BME280;40088;51.214;6.786;2022-12-07T21:05:00;100939.69;;;15.99;51.63
26839;BME280;40088;51.214;6.786;2022-12-07T21:15:00;100936.75;;;16.01;51.81
26839;BME280;40088;51.214;6.786;2022-12-07T21:25:00;100938.66;;;16.00;51.61
26839;BME280;40088;51.214;6.786;2022-12-07T21:35:00;100922.16;;;16.00;51.65
26839;BME280;40088;51.214;6.786;2022-12-07T21:45:01;100921.50;;;15.98;51.93
26839;BME280;40088;51.214;6.786;2022-12-07T21:55:01;100920.47;;;15.99;51.71
26839;BME280;40088;51.214;6.786;2022-12-07T22:05:01;100910.50;;;15.98;51.88
26839;BME280;40088;51.214;6.786;2022-12-07T22:15:01;100906.06;;;15.97;51.66
26839;BME280;40088;51.214;6.786;2022-12-07T22:25:05;100916.88;;;15.99;51.63
26839;BME280;40088;51.214;6.786;2022-12-07T22:35:06;100898.66;;;15.98;51.61
26839;BME280;40088;51.214;6.786;2022-12-07T22:45:06;100892.13;;;15.99;51.82
26839;BME280;40088;51.214;6.786;2022-12-07T22:55:07;100877.53;;;15.98;51.69
26839;BME280;40088;51.214;6.786;2022-12-07T23:05:08;100856.41;;;15.99;51.77
26839;BME280;40088;51.214;6.786;2022-12-07T23:15:08;100851.94;;;15.98;51.70
26839;BME280;40088;51.214;6.786;2022-12-07T23:25:09;100847.31;;;15.98;51.83
26839;BME280;40088;51.214;6.786;2022-12-07T23:35:09;100834.59;;;15.97;51.63
26839;BME280;40088;51.214;6.786;2022-12-07T23:45:09;100817.06;;;15.98;51.74
26839;BME280;40088;51.214;6.786;2022-12-07T23:55:10;100812.63;;;15.97;51.77
